createdAt,value
2019-01-20T00:01:34.601Z,10.47
2019-01-20T00:04:08.253Z,9.87
2019-01-20T00:06:41.569Z,10.63
2019-01-20T00:09:14.484Z,10.50
2019-01-20T00:11:46.343Z,10.30
2019-01-20T00:14:20.303Z,10.83
2019-01-20T00:16:51.275Z,8.90
2019-01-20T00:19:25.218Z,8.83
2019-01-20T00:21:56.165Z,9.27
2019-01-20T00:24:28.662Z,7.80
2019-01-20T00:26:59.691Z,9.27
2019-01-20T00:29:33.371Z,8.23
2019-01-20T00:32:07.390Z,8.93
2019-01-20T00:34:38.437Z,8.57
2019-01-20T00:37:11.369Z,9.23
2019-01-20T00:39:42.460Z,8.00
2019-01-20T00:42:13.938Z,7.67
2019-01-20T00:44:45.130Z,7.67
2019-01-20T00:47:16.112Z,8.13
2019-01-20T00:49:50.306Z,7.73
2019-01-20T00:52:24.075Z,8.33
2019-01-20T00:55:15.853Z,8.57
2019-01-20T00:57:52.722Z,8.30
2019-01-20T01:00:32.084Z,8.60
2019-01-20T01:03:04.526Z,8.70
2019-01-20T01:05:39.062Z,7.57
2019-01-20T01:08:11.470Z,8.70
2019-01-20T01:10:42.505Z,8.23
2019-01-20T01:13:15.800Z,8.90
2019-01-20T01:15:49.711Z,8.57
2019-01-20T01:18:20.567Z,8.93
2019-01-20T01:20:54.541Z,7.83
2019-01-20T01:23:27.794Z,8.43
2019-01-20T01:26:02.341Z,7.60
2019-01-20T01:28:33.253Z,8.20
2019-01-20T01:31:04.625Z,6.87
2019-01-20T01:33:35.526Z,8.43
2019-01-20T01:36:08.461Z,7.63
2019-01-20T01:38:39.229Z,7.87
2019-01-20T01:41:10.372Z,6.60
2019-01-20T01:43:44.609Z,7.10
2019-01-20T01:46:18.270Z,7.30
2019-01-20T01:48:49.018Z,7.07
2019-01-20T01:51:20.213Z,7.47
2019-01-20T01:53:51.088Z,7.00
2019-01-20T01:56:24.244Z,7.93
2019-01-20T01:58:55.441Z,7.70
2019-01-20T02:01:27.272Z,7.40
2019-01-20T02:03:59.850Z,8.77
2019-01-20T02:06:31.580Z,7.60
2019-01-20T02:09:07.909Z,7.83
2019-01-20T02:11:46.980Z,7.37
2019-01-20T02:14:16.600Z,8.17
2019-01-20T02:16:48.587Z,7.70
2019-01-20T02:19:21.967Z,6.70
2019-01-20T02:21:53.881Z,7.03
2019-01-20T02:24:24.693Z,7.03
2019-01-20T02:26:55.567Z,6.43
2019-01-20T02:29:26.533Z,7.53
2019-01-20T02:31:58.092Z,7.47
2019-01-20T02:34:29.119Z,7.20
2019-01-20T02:37:03.082Z,7.83
2019-01-20T02:39:35.833Z,7.00
2019-01-20T02:42:07.657Z,7.57
2019-01-20T02:44:38.831Z,7.63
2019-01-20T02:47:09.742Z,6.90
2019-01-20T02:49:40.658Z,7.43
2019-01-20T02:52:21.413Z,7.57
2019-01-20T02:54:53.805Z,6.73
2019-01-20T02:57:24.705Z,6.77
2019-01-20T02:59:58.958Z,7.30
2019-01-20T03:02:30.099Z,7.53
2019-01-20T03:05:01.442Z,7.73
2019-01-20T03:07:32.270Z,6.80
2019-01-20T03:10:09.702Z,6.40
2019-01-20T03:12:49.363Z,6.50
2019-01-20T03:15:20.199Z,6.23
2019-01-20T03:17:51.503Z,6.40
2019-01-20T03:20:29.105Z,6.40
2019-01-20T03:23:00.788Z,6.07
2019-01-20T03:25:34.083Z,7.43
2019-01-20T03:28:07.619Z,6.30
2019-01-20T03:30:40.281Z,6.47
2019-01-20T03:33:13.235Z,6.53
2019-01-20T03:35:44.613Z,5.90
2019-01-20T03:38:15.487Z,5.97
2019-01-20T03:40:46.616Z,5.73
2019-01-20T03:43:22.688Z,6.07
2019-01-20T03:45:57.062Z,7.10
2019-01-20T03:48:27.940Z,6.30
2019-01-20T03:50:59.921Z,6.17
2019-01-20T03:53:30.673Z,6.23
2019-01-20T03:56:04.035Z,6.73
2019-01-20T03:58:34.832Z,6.37
2019-01-20T04:01:09.988Z,7.30
2019-01-20T04:03:41.484Z,6.80
2019-01-20T04:06:16.039Z,6.50
2019-01-20T04:08:47.665Z,7.03
2019-01-20T04:11:19.949Z,6.03
2019-01-20T04:13:51.012Z,6.97
2019-01-20T04:16:23.682Z,6.90
2019-01-20T04:18:56.311Z,6.37
2019-01-20T04:21:27.467Z,7.77
2019-01-20T04:23:58.433Z,7.17
2019-01-20T04:26:29.343Z,7.13
2019-01-20T04:29:02.618Z,7.10
2019-01-20T04:31:36.384Z,8.63
2019-01-20T04:34:07.462Z,8.70
2019-01-20T04:36:38.605Z,7.73
2019-01-20T04:39:09.882Z,8.87
2019-01-20T04:41:41.749Z,10.23
2019-01-20T04:44:16.018Z,9.63
2019-01-20T04:46:46.910Z,8.07
2019-01-20T04:49:19.152Z,8.33
2019-01-20T04:51:50.201Z,9.80
2019-01-20T04:54:22.966Z,11.67
2019-01-20T04:56:53.941Z,13.50
2019-01-20T04:59:24.782Z,12.27
2019-01-20T05:01:56.133Z,12.07
2019-01-20T05:04:29.049Z,12.37
2019-01-20T05:06:59.899Z,12.33
2019-01-20T05:09:31.990Z,12.37
2019-01-20T05:12:03.373Z,10.33
2019-01-20T05:14:35.943Z,13.10
2019-01-20T05:17:06.760Z,12.37
2019-01-20T05:19:40.087Z,11.43
2019-01-20T05:22:11.030Z,11.10
2019-01-20T05:24:43.998Z,10.17
2019-01-20T05:27:17.547Z,9.90
2019-01-20T05:29:48.446Z,10.77
2019-01-20T05:32:19.223Z,11.13
2019-01-20T05:34:50.721Z,10.87
2019-01-20T05:37:21.661Z,10.83
2019-01-20T05:39:56.490Z,10.67
2019-01-20T05:42:29.475Z,8.83
2019-01-20T05:45:02.933Z,9.43
2019-01-20T05:47:36.792Z,10.00
2019-01-20T05:50:12.191Z,9.47
2019-01-20T05:52:44.198Z,10.03
2019-01-20T05:55:15.117Z,8.93
2019-01-20T05:57:48.658Z,8.60
2019-01-20T06:00:27.660Z,8.70
2019-01-20T06:02:58.524Z,8.90
2019-01-20T06:05:31.700Z,9.00
2019-01-20T06:08:05.205Z,7.67
2019-01-20T06:10:36.241Z,8.00
2019-01-20T06:13:07.181Z,8.00
2019-01-20T06:15:38.521Z,8.70
2019-01-20T06:18:10.829Z,8.93
2019-01-20T06:20:41.913Z,10.20
2019-01-20T06:23:13.128Z,9.30
2019-01-20T06:25:44.801Z,9.20
2019-01-20T06:28:16.002Z,9.60
2019-01-20T06:30:50.616Z,8.57
2019-01-20T06:33:21.720Z,8.70
2019-01-20T06:35:52.920Z,9.57
2019-01-20T06:38:27.103Z,9.10
2019-01-20T06:41:01.555Z,10.03
2019-01-20T06:43:38.355Z,9.90
2019-01-20T06:46:10.228Z,14.10
2019-01-20T06:48:41.074Z,11.97
2019-01-20T06:51:11.963Z,14.47
2019-01-20T06:53:44.317Z,17.50
2019-01-20T06:56:16.889Z,19.03
2019-01-20T06:58:52.543Z,17.73
2019-01-20T07:01:23.369Z,17.93
2019-01-20T07:03:54.199Z,17.67
2019-01-20T07:06:26.547Z,15.87
2019-01-20T07:08:57.466Z,15.57
2019-01-20T07:11:28.399Z,15.23
2019-01-20T07:14:02.280Z,13.37
2019-01-20T07:16:36.543Z,12.33
2019-01-20T07:19:07.334Z,12.70
2019-01-20T07:21:40.705Z,12.00
2019-01-20T07:24:14.333Z,10.60
2019-01-20T07:26:45.191Z,12.60
2019-01-20T07:29:16.321Z,11.07
2019-01-20T07:31:48.496Z,9.87
2019-01-20T07:34:20.352Z,11.10
2019-01-20T07:37:00.431Z,11.07
2019-01-20T07:39:31.565Z,11.53
2019-01-20T07:42:02.670Z,10.20
2019-01-20T07:44:38.774Z,10.40
2019-01-20T07:47:10.416Z,10.00
2019-01-20T07:49:43.172Z,10.40
2019-01-20T07:52:17.289Z,9.27
2019-01-20T07:54:55.720Z,11.30
2019-01-20T07:57:29.372Z,10.73
2019-01-20T08:00:05.225Z,10.70
2019-01-20T08:02:36.116Z,10.63
2019-01-20T08:05:10.226Z,11.33
2019-01-20T08:07:43.252Z,11.43
2019-01-20T08:10:16.621Z,11.33
2019-01-20T08:12:47.819Z,11.90
2019-01-20T08:15:24.460Z,11.20
2019-01-20T08:17:55.858Z,11.67
2019-01-20T08:20:29.327Z,13.73
2019-01-20T08:23:00.189Z,13.13
2019-01-20T08:25:35.751Z,14.87
2019-01-20T08:28:07.713Z,14.43
2019-01-20T08:30:39.477Z,16.17
2019-01-20T08:33:10.733Z,17.53
2019-01-20T08:35:42.591Z,20.13
2019-01-20T08:38:13.421Z,19.47
2019-01-20T08:40:52.608Z,20.17
2019-01-20T08:43:31.723Z,18.77
2019-01-20T08:46:42.538Z,20.17
2019-01-20T08:49:15.249Z,19.67
2019-01-20T08:51:46.564Z,23.87
2019-01-20T08:54:23.242Z,27.47
2019-01-20T08:56:55.475Z,28.87
2019-01-20T08:59:28.129Z,29.43
2019-01-20T09:02:01.576Z,28.97
2019-01-20T09:04:45.574Z,25.73
2019-01-20T09:07:16.887Z,29.03
2019-01-20T09:09:49.011Z,27.47
2019-01-20T09:12:34.568Z,31.50
2019-01-20T09:15:11.069Z,25.93
2019-01-20T09:17:41.886Z,27.03
2019-01-20T09:20:12.978Z,27.03
2019-01-20T09:22:46.085Z,30.30
2019-01-20T09:25:17.244Z,33.33
2019-01-20T09:27:48.259Z,28.80
2019-01-20T09:30:21.078Z,27.47
2019-01-20T09:32:53.487Z,27.83
2019-01-20T09:35:27.433Z,27.30
2019-01-20T09:37:58.796Z,26.13
2019-01-20T09:40:32.280Z,26.77
2019-01-20T09:43:04.588Z,27.47
2019-01-20T09:45:37.437Z,23.73
2019-01-20T09:48:08.416Z,22.93
2019-01-20T09:51:26.273Z,23.77
2019-01-20T09:54:04.765Z,23.10
2019-01-20T09:56:35.993Z,23.43
2019-01-20T09:59:09.614Z,20.97
2019-01-20T10:02:01.446Z,22.33
2019-01-20T10:04:35.284Z,23.43
2019-01-20T10:07:06.106Z,19.93
2019-01-20T10:09:37.481Z,20.30
2019-01-20T10:12:13.495Z,20.17
2019-01-20T10:14:44.687Z,26.70
2019-01-20T10:17:16.932Z,25.37
2019-01-20T10:19:47.762Z,28.27
2019-01-20T10:22:23.630Z,23.87
2019-01-20T10:25:03.358Z,25.33
2019-01-20T10:27:37.098Z,21.00
2019-01-20T10:30:28.625Z,23.30
2019-01-20T10:33:05.418Z,23.80
2019-01-20T10:36:14.699Z,23.33
2019-01-20T10:38:58.370Z,22.53
2019-01-20T10:41:30.986Z,23.00
2019-01-20T10:44:06.827Z,29.70
2019-01-20T10:46:42.168Z,24.67
2019-01-20T10:49:18.815Z,19.37
2019-01-20T10:51:54.463Z,18.13
2019-01-20T10:54:29.628Z,17.00
2019-01-20T10:57:01.357Z,19.87
2019-01-20T10:59:38.681Z,13.27
2019-01-20T11:02:17.346Z,11.03
2019-01-20T11:04:57.270Z,11.53
2019-01-20T11:07:25.611Z,11.77
2019-01-20T11:09:56.608Z,10.60
2019-01-20T11:12:27.810Z,10.23
2019-01-20T11:15:01.922Z,10.27
2019-01-20T11:17:36.890Z,11.43
2019-01-20T11:20:14.623Z,11.17
2019-01-20T11:22:45.417Z,11.07
2019-01-20T11:25:32.527Z,10.93
2019-01-20T11:28:06.247Z,11.73
2019-01-20T11:30:38.126Z,10.57
2019-01-20T11:33:16.551Z,11.13
2019-01-20T11:35:51.331Z,12.70
2019-01-20T11:38:22.179Z,13.50
2019-01-20T11:40:53.452Z,16.53
2019-01-20T11:43:26.987Z,21.23
2019-01-20T11:45:58.234Z,16.20
2019-01-20T11:48:33.223Z,15.17
2019-01-20T11:51:08.074Z,19.27
2019-01-20T11:53:40.455Z,18.83
2019-01-20T11:56:13.859Z,23.00
2019-01-20T11:58:46.709Z,14.27
2019-01-20T12:01:23.620Z,12.87
2019-01-20T12:04:01.026Z,15.40
2019-01-20T12:06:35.670Z,14.83
2019-01-20T12:09:23.892Z,16.03
2019-01-20T12:11:58.899Z,16.60
2019-01-20T12:14:29.739Z,15.50
2019-01-20T12:17:03.590Z,14.60
2019-01-20T12:19:34.445Z,14.83
2019-01-20T12:22:05.265Z,13.13
2019-01-20T12:24:38.247Z,13.93
2019-01-20T12:27:12.398Z,13.93
2019-01-20T12:29:52.153Z,16.60
2019-01-20T12:32:31.201Z,16.67
2019-01-20T12:35:05.987Z,15.17
2019-01-20T12:37:36.829Z,14.37
2019-01-20T12:40:11.446Z,13.37
2019-01-20T12:42:43.897Z,12.83
2019-01-20T12:45:15.306Z,11.27
2019-01-20T12:47:46.353Z,13.77
2019-01-20T12:50:19.637Z,12.03
2019-01-20T12:52:54.268Z,10.47
2019-01-20T12:55:25.972Z,10.23
2019-01-20T12:58:03.873Z,11.10
2019-01-20T13:00:45.090Z,12.33
2019-01-20T13:03:24.848Z,13.47
2019-01-20T13:06:03.321Z,11.27
2019-01-20T13:08:38.058Z,11.50
2019-01-20T13:11:09.276Z,10.90
2019-01-20T13:13:42.302Z,11.33
2019-01-20T13:16:13.092Z,10.70
2019-01-20T13:18:46.701Z,11.53
2019-01-20T13:21:27.145Z,13.80
2019-01-20T13:24:07.908Z,12.73
2019-01-20T13:26:40.305Z,11.77
2019-01-20T13:29:11.275Z,11.57
2019-01-20T13:31:54.826Z,11.87
2019-01-20T13:34:26.124Z,12.33
2019-01-20T13:37:07.479Z,13.10
2019-01-20T13:39:41.810Z,25.90
2019-01-20T13:42:13.321Z,29.37
2019-01-20T13:44:51.835Z,25.80
2019-01-20T13:47:23.020Z,38.27
2019-01-20T13:49:54.043Z,19.30
2019-01-20T13:52:27.428Z,17.23
2019-01-20T13:55:12.922Z,14.27
2019-01-20T13:57:45.444Z,13.53
2019-01-20T14:00:32.180Z,13.73
2019-01-20T14:03:03.048Z,13.63
2019-01-20T14:05:35.736Z,13.93
2019-01-20T14:08:09.962Z,13.63
2019-01-20T14:10:44.899Z,14.47
2019-01-20T14:13:16.287Z,14.37
2019-01-20T14:15:48.468Z,14.00
2019-01-20T14:18:19.446Z,16.03
2019-01-20T14:20:51.382Z,14.00
2019-01-20T14:23:24.316Z,13.70
2019-01-20T14:25:55.312Z,14.53
2019-01-20T14:28:26.470Z,12.83
2019-01-20T14:30:59.118Z,12.73
2019-01-20T14:33:31.690Z,12.30
2019-01-20T14:36:03.839Z,12.30
2019-01-20T14:38:38.063Z,12.97
2019-01-20T14:41:22.672Z,12.43
2019-01-20T14:43:56.030Z,12.60
2019-01-20T14:46:30.045Z,12.33
2019-01-20T14:49:17.891Z,13.13
2019-01-20T14:51:52.365Z,13.13
2019-01-20T14:54:28.994Z,13.83
2019-01-20T14:57:06.450Z,44.77
2019-01-20T14:59:37.221Z,22.73
2019-01-20T15:02:15.422Z,186.57
2019-01-20T15:04:46.617Z,181.67
2019-01-20T15:07:18.057Z,33.67
2019-01-20T15:09:49.161Z,15.87
2019-01-20T15:12:20.737Z,13.10
2019-01-20T15:14:51.542Z,16.10
2019-01-20T15:17:24.029Z,23.87
2019-01-20T15:19:57.955Z,25.33
2019-01-20T15:22:40.077Z,31.20
2019-01-20T15:25:14.972Z,21.33
2019-01-20T15:27:58.418Z,21.40
2019-01-20T15:30:31.425Z,20.63
2019-01-20T15:33:07.614Z,18.37
2019-01-20T15:35:41.753Z,16.33
2019-01-20T15:38:15.480Z,12.97
2019-01-20T15:40:46.866Z,14.27
2019-01-20T15:43:21.447Z,14.17
2019-01-20T15:45:52.456Z,14.30
2019-01-20T15:48:29.970Z,13.17
2019-01-20T15:51:05.956Z,13.73
2019-01-20T15:53:38.703Z,12.30
2019-01-20T15:56:13.191Z,13.67
2019-01-20T16:01:57.454Z,14.00
2019-01-20T16:04:28.291Z,18.27
2019-01-20T16:07:02.523Z,15.33
2019-01-20T16:09:38.537Z,15.10
2019-01-20T16:12:10.387Z,14.40
2019-01-20T16:14:41.677Z,13.60
2019-01-20T16:17:15.581Z,16.97
2019-01-20T16:19:56.590Z,19.03
2019-01-20T16:22:30.524Z,11.27
2019-01-20T16:25:13.282Z,9.80
2019-01-20T16:27:48.629Z,8.90
2019-01-20T16:30:22.726Z,8.43
2019-01-20T16:32:57.179Z,9.20
2019-01-20T16:35:28.371Z,8.83
2019-01-20T16:38:06.872Z,8.63
2019-01-20T16:40:44.650Z,9.53
2019-01-20T16:43:15.950Z,9.50
2019-01-20T16:45:48.519Z,10.00
2019-01-20T16:48:29.595Z,9.70
2019-01-20T16:51:08.561Z,10.13
2019-01-20T16:53:44.879Z,9.40
2019-01-20T16:56:15.996Z,9.67
2019-01-20T16:58:51.409Z,10.10
2019-01-20T17:01:24.514Z,9.80
2019-01-20T17:03:58.296Z,9.30
2019-01-20T17:06:31.537Z,9.17
2019-01-20T17:09:21.928Z,9.33
2019-01-20T17:11:54.938Z,9.97
2019-01-20T17:14:28.062Z,9.83
2019-01-20T17:16:59.437Z,9.57
2019-01-20T17:19:33.279Z,10.50
2019-01-20T17:22:06.315Z,10.47
2019-01-20T17:24:44.286Z,10.63
2019-01-20T17:27:15.208Z,11.33
2019-01-20T17:29:46.414Z,10.30
2019-01-20T17:32:17.385Z,10.53
2019-01-20T17:34:52.593Z,11.07
2019-01-20T17:37:27.493Z,11.57
2019-01-20T17:40:03.188Z,10.97
2019-01-20T17:42:41.510Z,12.30
2019-01-20T17:45:19.739Z,10.60
2019-01-20T17:47:50.890Z,10.87
2019-01-20T17:50:28.491Z,12.00
2019-01-20T17:52:59.394Z,12.97
2019-01-20T17:55:30.316Z,12.10
2019-01-20T17:58:18.842Z,12.57
2019-01-20T18:00:52.858Z,12.70
2019-01-20T18:03:24.044Z,11.80
2019-01-20T18:05:59.391Z,11.10
2019-01-20T18:08:30.232Z,11.27
2019-01-20T18:11:07.035Z,13.33
2019-01-20T18:13:43.368Z,11.83
2019-01-20T18:16:14.491Z,11.07
2019-01-20T18:18:53.240Z,10.10
2019-01-20T18:21:27.067Z,9.97
2019-01-20T18:23:59.843Z,10.10
2019-01-20T18:26:31.510Z,10.47
2019-01-20T18:29:10.527Z,9.80
2019-01-20T18:31:41.896Z,10.77
2019-01-20T18:34:13.372Z,9.80
2019-01-20T18:36:45.628Z,9.50
2019-01-20T18:39:23.876Z,9.73
2019-01-20T18:42:01.310Z,9.07
2019-01-20T18:44:35.604Z,10.03
2019-01-20T18:47:06.616Z,10.53
2019-01-20T18:49:40.616Z,10.63
2019-01-20T18:52:13.313Z,9.47
2019-01-20T18:54:44.851Z,8.57
2019-01-20T18:57:19.103Z,9.57
2019-01-20T18:59:51.408Z,9.73
2019-01-20T19:02:27.765Z,10.17
2019-01-20T19:05:00.230Z,9.40
2019-01-20T19:07:33.318Z,9.73
2019-01-20T19:10:06.401Z,9.57
2019-01-20T19:12:40.721Z,9.53
2019-01-20T19:15:15.004Z,9.40
2019-01-20T19:17:48.055Z,9.33
2019-01-20T19:20:26.844Z,9.83
2019-01-20T19:22:58.058Z,10.17
2019-01-20T19:25:28.883Z,10.80
2019-01-20T19:27:59.921Z,10.50
2019-01-20T19:30:32.913Z,10.70
2019-01-20T19:33:04.541Z,11.60
2019-01-20T19:35:35.500Z,11.87
2019-01-20T19:38:08.001Z,11.60
2019-01-20T19:40:41.297Z,11.17
2019-01-20T19:43:13.697Z,10.60
2019-01-20T19:45:48.859Z,10.77
2019-01-20T19:48:22.380Z,10.93
2019-01-20T19:50:53.488Z,10.47
2019-01-20T19:53:27.551Z,10.93
2019-01-20T19:56:01.894Z,12.63
2019-01-20T19:58:50.951Z,11.10
2019-01-20T20:01:22.294Z,11.90
2019-01-20T20:03:56.449Z,11.63
2019-01-20T20:06:30.819Z,11.27
2019-01-20T20:09:07.190Z,11.37
2019-01-20T20:11:52.079Z,12.13
2019-01-20T20:14:29.179Z,10.07
2019-01-20T20:17:00.263Z,10.07
2019-01-20T20:19:32.709Z,10.13
2019-01-20T20:22:06.281Z,11.10
2019-01-20T20:24:50.570Z,10.40
2019-01-20T20:27:24.543Z,11.10
2019-01-20T20:29:57.559Z,9.87
2019-01-20T20:32:29.386Z,11.17
2019-01-20T20:35:05.718Z,11.17
2019-01-20T20:38:01.729Z,10.77
2019-01-20T20:40:39.463Z,9.37
2019-01-20T20:43:13.115Z,10.17
2019-01-20T20:45:47.562Z,10.27
2019-01-20T20:48:28.833Z,10.43
2019-01-20T20:51:05.292Z,10.73
2019-01-20T20:53:36.964Z,10.53
2019-01-20T20:56:10.803Z,9.43
2019-01-20T20:58:44.973Z,9.83
2019-01-20T21:01:15.994Z,10.87
2019-01-20T21:03:47.425Z,9.00
2019-01-20T21:06:21.661Z,9.00
2019-01-20T21:08:53.712Z,9.87
2019-01-20T21:11:24.598Z,9.10
2019-01-20T21:13:55.719Z,9.67
2019-01-20T21:16:27.574Z,9.43
2019-01-20T21:19:08.833Z,9.43
2019-01-20T21:21:39.667Z,10.47
2019-01-20T21:24:16.474Z,9.53
2019-01-20T21:26:48.678Z,10.60
2019-01-20T21:29:19.716Z,10.33
2019-01-20T21:31:51.445Z,10.73
2019-01-20T21:34:22.465Z,10.03
2019-01-20T21:37:01.720Z,8.73
2019-01-20T21:39:32.549Z,8.37
2019-01-20T21:42:03.774Z,10.33
2019-01-20T21:44:37.916Z,8.80
2019-01-20T21:47:10.248Z,8.93
2019-01-20T21:49:42.963Z,8.93
2019-01-20T21:52:13.765Z,9.77
2019-01-20T21:54:48.566Z,9.83
2019-01-20T21:57:18.943Z,9.27
2019-01-20T21:59:49.858Z,8.57
2019-01-20T22:02:23.822Z,9.20
2019-01-20T22:04:54.574Z,8.97
2019-01-20T22:07:25.692Z,9.20
2019-01-20T22:09:59.398Z,8.90
2019-01-20T22:12:32.340Z,9.50
2019-01-20T22:15:04.101Z,8.97
2019-01-20T22:17:35.921Z,9.00
2019-01-20T22:20:07.817Z,8.83
2019-01-20T22:22:42.174Z,10.40
2019-01-20T22:25:13.686Z,9.63
2019-01-20T22:27:46.358Z,8.90
2019-01-20T22:30:22.936Z,9.07
2019-01-20T22:32:55.432Z,10.57
2019-01-20T22:35:35.505Z,8.43
2019-01-20T22:38:09.336Z,9.23
2019-01-20T22:40:40.189Z,8.33
2019-01-20T22:43:12.698Z,8.33
2019-01-20T22:45:45.348Z,8.73
2019-01-20T22:48:16.372Z,9.33
2019-01-20T22:50:54.624Z,8.53
2019-01-20T22:53:30.004Z,8.83
2019-01-20T22:56:01.047Z,9.03
2019-01-20T22:58:32.411Z,8.87
2019-01-20T23:01:16.376Z,8.80
2019-01-20T23:03:47.280Z,8.40
2019-01-20T23:06:19.503Z,8.50
2019-01-20T23:08:52.959Z,8.93
2019-01-20T23:11:23.759Z,8.80
2019-01-20T23:13:54.544Z,8.67
2019-01-20T23:16:28.477Z,9.90
2019-01-20T23:19:02.113Z,9.30
2019-01-20T23:21:35.125Z,9.00
2019-01-20T23:24:10.912Z,9.33
2019-01-20T23:26:42.622Z,8.80
2019-01-20T23:29:22.349Z,9.43
2019-01-20T23:32:01.102Z,10.93
2019-01-20T23:34:31.971Z,9.60
2019-01-20T23:37:04.193Z,10.23
2019-01-20T23:39:39.270Z,8.97
2019-01-20T23:42:13.873Z,10.30
2019-01-20T23:44:45.926Z,9.63
2019-01-20T23:47:17.298Z,10.30
2019-01-20T23:49:48.435Z,9.63
2019-01-20T23:52:19.604Z,9.83
2019-01-20T23:54:51.739Z,9.80
2019-01-20T23:57:22.728Z,8.73
2019-01-20T23:59:56.691Z,8.50
